Time;durP1;ratioP1;P1;durP2;ratioP2;P2;SDS_P1;SDS_P2;PMS_P1;PMS_P2;Temp;Humidity;BMP_temperature;BMP_pressure;BME280_temperature;BME280_humidity;BME280_pressure;Samples;Min_cycle;Max_cycle;Signal;HPM_P1;HPM_P2
2022/09/29 00:00:04;;;;;;;7.20;3.10;;;;;;;;;;5091357;28;20040;-78
2022/09/29 00:02:29;;;;;;;8.10;3.20;;;;;;;;;;5091100;28;20108;-78
2022/09/29 00:04:55;;;;;;;4.45;3.00;;;;;;;;;;5091085;28;20099;-77
2022/09/29 00:07:20;;;;;;;4.90;3.10;;;;;;;;;;5091306;28;20097;-77
2022/09/29 00:09:45;;;;;;;5.05;3.00;;;;;;;;;;5091385;28;20036;-78
2022/09/29 00:12:10;;;;;;;5.78;2.90;;;;;;;;;;5091192;28;20032;-77
2022/09/29 00:14:36;;;;;;;6.07;3.10;;;;;;;;;;5090635;28;20024;-78
2022/09/29 00:17:01;;;;;;;4.00;2.85;;;;;;;;;;5091164;28;20458;-77
2022/09/29 00:19:27;;;;;;;4.35;2.92;;;;;;;;;;5091231;28;20051;-77
2022/09/29 00:21:53;;;;;;;4.30;3.05;;;;;;;;;;5089546;28;20686;-78
2022/09/29 00:24:18;;;;;;;4.30;2.60;;;;;;;;;;5089828;28;20027;-77
2022/09/29 00:26:45;;;;;;;4.22;2.55;;;;;;;;;;5090608;28;20035;-77
2022/09/29 00:29:11;;;;;;;4.72;3.00;;;;;;;;;;5090819;28;20069;-77
2022/09/29 00:31:36;;;;;;;5.68;2.72;;;;;;;;;;5090923;28;20039;-77
2022/09/29 00:34:02;;;;;;;3.13;2.38;;;;;;;;;;5090535;28;20058;-77
2022/09/29 00:36:29;;;;;;;4.25;2.60;;;;;;;;;;5090598;28;20032;-77
2022/09/29 00:38:55;;;;;;;4.80;2.80;;;;;;;;;;5088806;28;20024;-78
2022/09/29 00:41:24;;;;;;;4.15;2.28;;;;;;;;;;5090617;28;20028;-77
2022/09/29 00:43:59;;;;;;;5.10;2.60;;;;;;;;;;5090224;28;20388;-77
2022/09/29 00:46:42;;;;;;;3.95;2.50;;;;;;;;;;5090722;28;20024;-77
2022/09/29 00:49:23;;;;;;;5.80;2.53;;;;;;;;;;5088405;28;20464;-77
2022/09/29 00:51:58;;;;;;;3.63;2.55;;;;;;;;;;5090131;28;20024;-77
2022/09/29 00:54:27;;;;;;;3.60;2.22;;;;;;;;;;5090308;28;20024;-77
2022/09/29 00:56:55;;;;;;;3.13;2.13;;;;;;;;;;5089041;28;20015;-77
2022/09/29 00:59:30;;;;;;;3.00;2.35;;;;;;;;;;5090162;28;20032;-77
2022/09/29 01:01:56;;;;;;;4.85;2.45;;;;;;;;;;5090522;28;20075;-77
2022/09/29 01:04:22;;;;;;;5.03;2.55;;;;;;;;;;5088466;28;20028;-77
2022/09/29 01:06:52;;;;;;;3.65;2.45;;;;;;;;;;5088797;28;20493;-77
2022/09/29 01:09:21;;;;;;;3.50;2.35;;;;;;;;;;5090085;28;20543;-77
2022/09/29 01:11:46;;;;;;;6.68;2.67;;;;;;;;;;5088756;28;20481;-77
2022/09/29 01:14:12;;;;;;;2.70;2.17;;;;;;;;;;5089970;28;20028;-77
2022/09/29 01:16:40;;;;;;;3.33;2.30;;;;;;;;;;5089551;28;20435;-76
2022/09/29 01:19:21;;;;;;;2.85;2.10;;;;;;;;;;5088637;28;20019;-76
2022/09/29 01:22:04;;;;;;;2.85;2.10;;;;;;;;;;5088462;28;20020;-77
2022/09/29 01:25:09;;;;;;;3.08;1.90;;;;;;;;;;5090289;28;20028;-77
2022/09/29 01:28:02;;;;;;;2.90;2.05;;;;;;;;;;5089535;28;20477;-77
2022/09/29 01:31:13;;;;;;;4.57;2.10;;;;;;;;;;5091774;28;20056;-77
2022/09/29 01:33:49;;;;;;;3.15;1.90;;;;;;;;;;5073427;28;20385;-76
2022/09/29 01:36:37;;;;;;;3.95;1.90;;;;;;;;;;5093693;28;20024;-76
2022/09/29 01:39:29;;;;;;;4.05;1.98;;;;;;;;;;5093216;28;20028;-77
2022/09/29 01:42:06;;;;;;;4.53;2.20;;;;;;;;;;5091901;28;20030;-77
2022/09/29 01:45:03;;;;;;;4.38;2.10;;;;;;;;;;5092965;28;20540;-76
2022/09/29 01:47:43;;;;;;;2.92;2.10;;;;;;;;;;5091688;28;20503;-76
2022/09/29 01:50:16;;;;;;;2.72;1.98;;;;;;;;;;5091734;28;20024;-77
2022/09/29 01:52:48;;;;;;;3.63;1.92;;;;;;;;;;5093182;28;20444;-77
2022/09/29 01:55:20;;;;;;;2.88;2.20;;;;;;;;;;5092945;28;20093;-77
2022/09/29 01:58:01;;;;;;;4.20;2.10;;;;;;;;;;5092943;28;20362;-77
2022/09/29 02:00:30;;;;;;;2.03;1.73;;;;;;;;;;5099070;28;20028;-76
2022/09/29 02:03:14;;;;;;;2.90;2.10;;;;;;;;;;5099760;28;20043;-77
2022/09/29 02:05:57;;;;;;;2.85;2.10;;;;;;;;;;5099953;28;20517;-77
2022/09/29 02:08:33;;;;;;;3.67;2.30;;;;;;;;;;5099767;28;20036;-77
2022/09/29 02:11:05;;;;;;;3.83;2.20;;;;;;;;;;5098319;28;20056;-77
2022/09/29 02:13:34;;;;;;;2.30;1.90;;;;;;;;;;5099807;28;20107;-77
2022/09/29 02:16:03;;;;;;;2.50;2.05;;;;;;;;;;5099524;28;20586;-77
2022/09/29 02:18:33;;;;;;;3.15;2.10;;;;;;;;;;5099822;28;20107;-77
2022/09/29 02:21:00;;;;;;;3.15;2.08;;;;;;;;;;5099491;28;20112;-77
2022/09/29 02:23:25;;;;;;;3.33;2.28;;;;;;;;;;5100041;28;20058;-77
2022/09/29 02:25:51;;;;;;;3.10;2.20;;;;;;;;;;5099565;28;20392;-77
2022/09/29 02:28:18;;;;;;;2.90;2.00;;;;;;;;;;5099679;28;20066;-77
2022/09/29 02:30:43;;;;;;;2.78;2.15;;;;;;;;;;5098097;28;20039;-77
2022/09/29 02:33:24;;;;;;;3.00;2.20;;;;;;;;;;5098190;28;20027;-77
2022/09/29 02:35:53;;;;;;;2.88;2.13;;;;;;;;;;5099680;28;20101;-77
2022/09/29 02:38:35;;;;;;;6.63;2.30;;;;;;;;;;5099210;28;20046;-77
2022/09/29 02:41:38;;;;;;;2.72;2.03;;;;;;;;;;5099334;28;20062;-77
2022/09/29 02:44:06;;;;;;;2.88;2.15;;;;;;;;;;5099146;28;20050;-77
2022/09/29 02:46:43;;;;;;;2.83;2.08;;;;;;;;;;5099559;28;20468;-77
2022/09/29 02:49:21;;;;;;;2.63;1.95;;;;;;;;;;5097955;28;20028;-77
2022/09/29 02:51:53;;;;;;;3.28;2.20;;;;;;;;;;5099487;28;20062;-77
2022/09/29 02:54:32;;;;;;;4.68;2.15;;;;;;;;;;5097907;28;20031;-77
2022/09/29 02:57:16;;;;;;;3.33;2.20;;;;;;;;;;5099454;28;20027;-77
2022/09/29 03:00:09;;;;;;;3.72;2.58;;;;;;;;;;5099170;28;20020;-77
2022/09/29 03:02:36;;;;;;;3.65;2.50;;;;;;;;;;5097827;28;20471;-77
2022/09/29 03:05:05;;;;;;;6.57;2.33;;;;;;;;;;5099288;28;20073;-77
2022/09/29 03:07:30;;;;;;;3.55;2.28;;;;;;;;;;5097752;28;20059;-77
2022/09/29 03:09:55;;;;;;;2.63;2.13;;;;;;;;;;5097038;28;20066;-77
2022/09/29 03:12:20;;;;;;;3.45;2.45;;;;;;;;;;5095438;28;20051;-77
2022/09/29 03:14:46;;;;;;;3.55;2.50;;;;;;;;;;5095740;28;20024;-77
2022/09/29 03:17:11;;;;;;;3.75;2.38;;;;;;;;;;5095856;28;20024;-77
2022/09/29 03:19:36;;;;;;;4.32;2.50;;;;;;;;;;5095663;28;20056;-77
2022/09/29 03:22:02;;;;;;;3.63;2.58;;;;;;;;;;5094547;28;20024;-76
2022/09/29 03:24:28;;;;;;;4.47;3.00;;;;;;;;;;5094374;28;20089;-77
2022/09/29 03:26:53;;;;;;;4.95;2.95;;;;;;;;;;5094307;28;20111;-76
2022/09/29 03:29:19;;;;;;;9.35;2.67;;;;;;;;;;5094220;28;20493;-77
2022/09/29 03:31:44;;;;;;;4.47;2.50;;;;;;;;;;5096026;28;20097;-77
2022/09/29 03:34:09;;;;;;;2.78;2.17;;;;;;;;;;5095361;28;20434;-76
2022/09/29 03:36:34;;;;;;;3.38;2.40;;;;;;;;;;5095424;28;20401;-77
2022/09/29 03:39:00;;;;;;;8.35;2.30;;;;;;;;;;5095312;28;20157;-77
2022/09/29 03:41:25;;;;;;;4.40;2.67;;;;;;;;;;5095674;28;20065;-77
2022/09/29 03:43:50;;;;;;;3.47;2.50;;;;;;;;;;5095123;28;20028;-77
2022/09/29 03:46:16;;;;;;;5.40;2.38;;;;;;;;;;5094063;28;20358;-77
2022/09/29 03:48:41;;;;;;;3.72;2.20;;;;;;;;;;5093912;28;20050;-77
2022/09/29 03:51:07;;;;;;;3.88;2.60;;;;;;;;;;5095012;28;20073;-77
2022/09/29 03:53:34;;;;;;;3.08;2.17;;;;;;;;;;5093861;28;20035;-77
2022/09/29 03:56:00;;;;;;;3.70;2.53;;;;;;;;;;5094933;28;20081;-77
2022/09/29 03:58:25;;;;;;;2.75;2.28;;;;;;;;;;5094973;28;20024;-77
2022/09/29 04:00:50;;;;;;;3.92;2.58;;;;;;;;;;5094877;28;20110;-77
2022/09/29 04:03:16;;;;;;;3.80;2.28;;;;;;;;;;5095229;28;20028;-77
2022/09/29 04:05:44;;;;;;;2.65;2.28;;;;;;;;;;5095570;28;20056;-77
2022/09/29 04:08:09;;;;;;;5.75;2.45;;;;;;;;;;5094926;28;20078;-77
2022/09/29 04:10:38;;;;;;;4.15;2.50;;;;;;;;;;5094918;28;20473;-77
2022/09/29 04:13:04;;;;;;;3.75;2.58;;;;;;;;;;5094906;28;20023;-78
2022/09/29 04:15:29;;;;;;;4.85;2.58;;;;;;;;;;5095338;28;20052;-77
2022/09/29 04:17:55;;;;;;;3.92;2.40;;;;;;;;;;5095476;28;20073;-77
2022/09/29 04:20:20;;;;;;;6.05;2.40;;;;;;;;;;5094798;28;20455;-78
2022/09/29 04:22:45;;;;;;;3.42;2.33;;;;;;;;;;5093153;28;20024;-77
2022/09/29 04:25:11;;;;;;;6.38;2.47;;;;;;;;;;5095023;28;20358;-77
2022/09/29 04:27:36;;;;;;;3.00;2.35;;;;;;;;;;5094604;28;20028;-77
2022/09/29 04:30:02;;;;;;;4.00;2.70;;;;;;;;;;5094530;28;20020;-78
2022/09/29 04:32:28;;;;;;;3.80;2.50;;;;;;;;;;5094940;28;20099;-77
2022/09/29 04:34:53;;;;;;;6.63;2.80;;;;;;;;;;5095884;28;20092;-77
2022/09/29 04:37:18;;;;;;;3.70;2.53;;;;;;;;;;5101128;28;20031;-77
2022/09/29 04:39:43;;;;;;;3.55;2.55;;;;;;;;;;5095478;28;20051;-77
2022/09/29 04:42:09;;;;;;;7.47;2.85;;;;;;;;;;5095252;28;20027;-77
2022/09/29 04:44:34;;;;;;;6.47;2.78;;;;;;;;;;5095034;28;20031;-78
2022/09/29 04:46:59;;;;;;;3.97;2.53;;;;;;;;;;5095372;28;20020;-77
2022/09/29 04:49:24;;;;;;;3.42;2.40;;;;;;;;;;5093810;28;20023;-77
2022/09/29 04:51:50;;;;;;;3.95;2.70;;;;;;;;;;5095890;28;20032;-77
2022/09/29 04:54:16;;;;;;;4.00;2.78;;;;;;;;;;5100858;28;20027;-77
2022/09/29 04:56:41;;;;;;;4.10;2.70;;;;;;;;;;5103901;28;20085;-76
2022/09/29 04:59:07;;;;;;;5.90;3.10;;;;;;;;;;5102779;28;20506;-77
2022/09/29 05:01:33;;;;;;;3.40;2.60;;;;;;;;;;5103709;28;20019;-76
2022/09/29 05:03:58;;;;;;;8.95;2.85;;;;;;;;;;5104531;28;20099;-76
2022/09/29 05:06:23;;;;;;;4.13;2.75;;;;;;;;;;5103739;28;20096;-76
2022/09/29 05:08:49;;;;;;;5.50;2.92;;;;;;;;;;5106461;28;20028;-76
2022/09/29 05:11:14;;;;;;;4.15;2.85;;;;;;;;;;5105700;28;20024;-76
2022/09/29 05:13:43;;;;;;;3.70;2.60;;;;;;;;;;5107300;28;20024;-77
2022/09/29 05:16:08;;;;;;;6.45;3.17;;;;;;;;;;5104414;28;20110;-76
2022/09/29 05:18:34;;;;;;;5.63;2.88;;;;;;;;;;5108820;28;20024;-76
2022/09/29 05:21:04;;;;;;;4.28;2.95;;;;;;;;;;5107837;28;20024;-76
2022/09/29 05:23:29;;;;;;;4.43;3.00;;;;;;;;;;5105541;28;20500;-77
2022/09/29 05:25:59;;;;;;;3.92;2.75;;;;;;;;;;5108475;28;20028;-76
2022/09/29 05:28:24;;;;;;;4.55;3.15;;;;;;;;;;5106846;28;20088;-76
2022/09/29 05:30:49;;;;;;;5.20;3.30;;;;;;;;;;5104866;28;20054;-77
2022/09/29 05:33:14;;;;;;;5.07;3.30;;;;;;;;;;5094605;28;20027;-77
2022/09/29 05:35:40;;;;;;;6.28;3.38;;;;;;;;;;5093225;28;20062;-77
2022/09/29 05:38:06;;;;;;;5.63;3.13;;;;;;;;;;5093250;28;20512;-77
2022/09/29 05:40:31;;;;;;;4.93;3.22;;;;;;;;;;5093210;28;20054;-77
2022/09/29 05:42:59;;;;;;;4.53;3.10;;;;;;;;;;5093316;28;20434;-77
2022/09/29 05:45:24;;;;;;;4.97;3.60;;;;;;;;;;5093314;28;20038;-77
2022/09/29 05:47:49;;;;;;;7.40;3.53;;;;;;;;;;5093360;28;20481;-77
2022/09/29 05:50:15;;;;;;;10.63;6.22;;;;;;;;;;5092806;28;20028;-76
2022/09/29 05:52:40;;;;;;;5.18;3.40;;;;;;;;;;5092847;28;20031;-76
2022/09/29 05:55:08;;;;;;;5.43;3.30;;;;;;;;;;5097708;28;20110;-76
2022/09/29 05:57:34;;;;;;;5.43;3.40;;;;;;;;;;5091812;28;20143;-75
2022/09/29 06:00:00;;;;;;;4.93;3.50;;;;;;;;;;5092834;28;20032;-76
2022/09/29 06:02:25;;;;;;;5.15;3.20;;;;;;;;;;5092966;28;20365;-77
2022/09/29 06:04:50;;;;;;;6.00;3.33;;;;;;;;;;5092920;28;20337;-77
2022/09/29 06:07:16;;;;;;;11.80;3.40;;;;;;;;;;5091529;28;20093;-77
2022/09/29 06:09:41;;;;;;;6.45;3.55;;;;;;;;;;5092837;28;20081;-77
2022/09/29 06:12:06;;;;;;;7.03;3.75;;;;;;;;;;5091421;28;20031;-77
2022/09/29 06:14:31;;;;;;;6.32;3.45;;;;;;;;;;5091525;28;20147;-77
2022/09/29 06:16:57;;;;;;;7.60;3.65;;;;;;;;;;5093078;28;20069;-77
2022/09/29 06:19:22;;;;;;;13.18;4.15;;;;;;;;;;5091387;28;20421;-77
2022/09/29 06:21:47;;;;;;;6.28;3.47;;;;;;;;;;5093017;28;20024;-77
2022/09/29 06:24:13;;;;;;;5.47;3.67;;;;;;;;;;5092804;28;20383;-77
2022/09/29 06:26:38;;;;;;;7.60;4.20;;;;;;;;;;5092579;28;20099;-77
2022/09/29 06:29:03;;;;;;;6.88;3.75;;;;;;;;;;5092612;28;20542;-77
2022/09/29 06:31:30;;;;;;;5.78;3.65;;;;;;;;;;5092643;28;20032;-77
2022/09/29 06:34:01;;;;;;;5.88;3.40;;;;;;;;;;5092510;28;20055;-77
2022/09/29 06:39:17;;;;;;;6.10;3.70;;;;;;;;;;5092555;28;20397;-77
2022/09/29 06:41:47;;;;;;;6.32;4.03;;;;;;;;;;5092477;28;20020;-77
2022/09/29 06:44:13;;;;;;;7.70;3.75;;;;;;;;;;5091088;28;20031;-77
2022/09/29 06:46:38;;;;;;;11.35;3.95;;;;;;;;;;5094972;28;20020;-77
2022/09/29 06:49:04;;;;;;;5.50;3.60;;;;;;;;;;5096423;28;20228;-77
2022/09/29 06:51:29;;;;;;;7.32;3.85;;;;;;;;;;5096451;28;20070;-77
2022/09/29 06:53:54;;;;;;;7.22;3.63;;;;;;;;;;5096222;28;20031;-76
2022/09/29 06:56:19;;;;;;;5.57;3.90;;;;;;;;;;5095101;28;20028;-75
2022/09/29 06:58:45;;;;;;;5.75;3.95;;;;;;;;;;5094794;28;20112;-77
2022/09/29 07:01:11;;;;;;;5.28;3.50;;;;;;;;;;5095924;28;20109;-74
2022/09/29 07:03:37;;;;;;;5.28;3.35;;;;;;;;;;5096463;28;20120;-76
2022/09/29 07:06:04;;;;;;;6.25;3.47;;;;;;;;;;5095872;28;20473;-77
2022/09/29 07:08:30;;;;;;;6.85;3.42;;;;;;;;;;5095969;28;20103;-77
2022/09/29 07:10:55;;;;;;;6.80;4.35;;;;;;;;;;5095902;28;20020;-76
2022/09/29 07:13:21;;;;;;;5.60;3.65;;;;;;;;;;5096102;28;20089;-76
2022/09/29 07:15:46;;;;;;;6.30;3.53;;;;;;;;;;5095740;28;20020;-77
2022/09/29 07:18:12;;;;;;;5.65;3.65;;;;;;;;;;5095824;28;20027;-77
2022/09/29 07:20:38;;;;;;;6.93;3.88;;;;;;;;;;5095633;28;20124;-77
2022/09/29 07:23:04;;;;;;;9.95;3.83;;;;;;;;;;5094318;28;20020;-77
2022/09/29 07:25:30;;;;;;;9.32;3.85;;;;;;;;;;5095608;28;20012;-76
2022/09/29 07:27:55;;;;;;;6.22;3.70;;;;;;;;;;5095495;28;20366;-76
2022/09/29 07:30:20;;;;;;;6.57;3.78;;;;;;;;;;5095276;28;20027;-76
2022/09/29 07:32:45;;;;;;;5.38;3.67;;;;;;;;;;5095858;28;20020;-76
2022/09/29 07:35:11;;;;;;;7.32;3.90;;;;;;;;;;5095186;28;20020;-77
2022/09/29 07:37:36;;;;;;;6.63;3.78;;;;;;;;;;5095261;28;20460;-76
2022/09/29 07:40:01;;;;;;;6.22;4.00;;;;;;;;;;5095466;28;20016;-76
2022/09/29 07:42:28;;;;;;;5.72;3.90;;;;;;;;;;5095214;28;20063;-76
2022/09/29 07:44:54;;;;;;;6.20;3.60;;;;;;;;;;5095023;28;20476;-76
2022/09/29 07:47:19;;;;;;;8.10;3.45;;;;;;;;;;5094961;28;20039;-77
2022/09/29 07:49:45;;;;;;;7.70;3.88;;;;;;;;;;5093896;28;20131;-76
2022/09/29 07:52:14;;;;;;;5.00;3.33;;;;;;;;;;5094876;28;20103;-77
2022/09/29 07:54:39;;;;;;;8.35;3.90;;;;;;;;;;5094838;28;20055;-76
2022/09/29 07:57:05;;;;;;;5.40;3.35;;;;;;;;;;5094336;28;20047;-75
2022/09/29 07:59:30;;;;;;;8.55;3.80;;;;;;;;;;5094771;28;20032;-77
2022/09/29 08:01:56;;;;;;;5.70;3.55;;;;;;;;;;5094814;28;20023;-76
2022/09/29 08:04:22;;;;;;;5.05;3.25;;;;;;;;;;5094762;28;20107;-76
2022/09/29 08:06:47;;;;;;;6.60;3.50;;;;;;;;;;5094583;28;20104;-76
2022/09/29 08:09:13;;;;;;;5.90;3.20;;;;;;;;;;5098475;28;20118;-81
2022/09/29 08:11:41;;;;;;;7.53;3.38;;;;;;;;;;5098104;28;20115;-77
2022/09/29 08:14:08;;;;;;;4.97;3.58;;;;;;;;;;5095549;28;20024;-77
2022/09/29 08:16:34;;;;;;;4.90;3.15;;;;;;;;;;5094534;28;20103;-77
2022/09/29 08:19:00;;;;;;;5.07;3.40;;;;;;;;;;5094931;28;20035;-75
2022/09/29 08:21:26;;;;;;;5.95;3.30;;;;;;;;;;5094352;28;20039;-76
2022/09/29 08:23:52;;;;;;;4.70;2.78;;;;;;;;;;5094345;28;20378;-76
2022/09/29 08:26:20;;;;;;;4.43;3.00;;;;;;;;;;5094540;28;20050;-75
2022/09/29 08:28:45;;;;;;;5.47;3.67;;;;;;;;;;5095963;28;20028;-78
2022/09/29 08:31:19;;;;;;;9.73;3.40;;;;;;;;;;5095138;28;20024;-77
2022/09/29 08:33:45;;;;;;;;;;;;;;;;;;5094909;28;20481;-75
2022/09/29 08:36:13;;;;;;;6.20;3.47;;;;;;;;;;5093779;28;19926;-77
2022/09/29 08:38:49;;;;;;;6.72;3.78;;;;;;;;;;5093991;28;20047;-76
2022/09/29 08:41:28;;;;;;;5.57;3.38;;;;;;;;;;5094270;28;20028;-76
2022/09/29 08:44:09;;;;;;;6.07;3.88;;;;;;;;;;5094205;28;20107;-76
2022/09/29 08:46:43;;;;;;;6.20;3.70;;;;;;;;;;5095569;28;20103;-76
2022/09/29 08:49:19;;;;;;;;;;;;;;;;;;5095189;28;20107;-77
2022/09/29 08:51:50;;;;;;;4.10;2.92;;;;;;;;;;5094243;28;20365;-77
2022/09/29 08:54:24;;;;;;;7.57;3.72;;;;;;;;;;5093982;28;20396;-77
2022/09/29 08:56:50;;;;;;;5.65;3.60;;;;;;;;;;5095239;28;20024;-77
2022/09/29 08:59:16;;;;;;;7.18;3.78;;;;;;;;;;5094462;28;20377;-78
2022/09/29 09:01:50;;;;;;;6.18;3.90;;;;;;;;;;5093394;28;20062;-77
2022/09/29 09:04:49;;;;;;;6.22;4.00;;;;;;;;;;5094539;28;20038;-77
2022/09/29 09:07:45;;;;;;;5.93;3.45;;;;;;;;;;5094559;28;20473;-77
2022/09/29 09:10:27;;;;;;;5.35;3.50;;;;;;;;;;5093651;28;20401;-77
2022/09/29 09:13:11;;;;;;;5.38;3.53;;;;;;;;;;5093210;28;20016;-77
2022/09/29 09:15:45;;;;;;;;;;;;;;;;;;5094847;28;20063;-77
2022/09/29 09:18:21;;;;;;;7.30;3.60;;;;;;;;;;5094509;28;19912;-77
2022/09/29 09:21:05;;;;;;;6.18;3.40;;;;;;;;;;5094128;28;20020;-77
2022/09/29 09:23:49;;;;;;;5.13;3.17;;;;;;;;;;5094570;28;20020;-77
2022/09/29 09:26:14;;;;;;;5.85;3.47;;;;;;;;;;5093152;28;20062;-78
2022/09/29 09:28:52;;;;;;;4.82;3.08;;;;;;;;;;5094053;28;20050;-76
2022/09/29 09:31:24;;;;;;;6.28;3.97;;;;;;;;;;5093808;28;20032;-77
2022/09/29 09:34:05;;;;;;;6.70;3.75;;;;;;;;;;5094310;28;20468;-77
2022/09/29 09:36:48;;;;;;;9.57;4.28;;;;;;;;;;5094501;28;20028;-77
2022/09/29 09:39:20;;;;;;;5.78;3.90;;;;;;;;;;5092759;28;20050;-77
2022/09/29 09:41:50;;;;;;;5.90;3.80;;;;;;;;;;5093833;28;20377;-77
2022/09/29 09:44:18;;;;;;;5.90;3.58;;;;;;;;;;5093297;28;20059;-76
2022/09/29 09:46:52;;;;;;;8.27;3.60;;;;;;;;;;5091887;28;20481;-77
2022/09/29 09:49:17;;;;;;;;;;;;;;;;;;5093784;28;20493;-77
2022/09/29 09:51:49;;;;;;;7.20;3.60;;;;;;;;;;5093655;28;19934;-76
2022/09/29 09:54:30;;;;;;;5.45;3.63;;;;;;;;;;5093750;28;20048;-77
2022/09/29 09:57:32;;;;;;;4.75;3.40;;;;;;;;;;5092882;28;20028;-77
2022/09/29 10:00:30;;;;;;;5.25;3.30;;;;;;;;;;5092392;28;20059;-77
2022/09/29 10:02:57;;;;;;;5.65;3.38;;;;;;;;;;5077646;28;20039;-77
2022/09/29 10:05:29;;;;;;;5.93;3.38;;;;;;;;;;5093831;28;20020;-78
2022/09/29 10:07:54;;;;;;;5.20;3.30;;;;;;;;;;5092738;28;20093;-77
2022/09/29 10:10:22;;;;;;;5.97;3.47;;;;;;;;;;5093007;28;20496;-77
2022/09/29 10:13:03;;;;;;;4.28;2.90;;;;;;;;;;5092722;28;20066;-77
2022/09/29 10:16:05;;;;;;;4.38;2.78;;;;;;;;;;5094372;28;20054;-77
2022/09/29 10:18:30;;;;;;;4.53;3.17;;;;;;;;;;5093306;28;20028;-77
2022/09/29 10:20:56;;;;;;;7.77;3.00;;;;;;;;;;5096014;28;20504;-77
2022/09/29 10:23:31;;;;;;;4.70;3.22;;;;;;;;;;5097975;28;20729;-77
2022/09/29 10:26:14;;;;;;;4.85;3.05;;;;;;;;;;5097933;28;20091;-77
2022/09/29 10:28:52;;;;;;;5.43;3.08;;;;;;;;;;5097361;28;20070;-77
2022/09/29 10:31:35;;;;;;;4.82;2.78;;;;;;;;;;5098158;28;20055;-77
2022/09/29 10:34:09;;;;;;;5.93;2.40;;;;;;;;;;5098188;28;20030;-77
2022/09/29 10:36:49;;;;;;;3.33;2.70;;;;;;;;;;5098282;28;20130;-77
2022/09/29 10:39:30;;;;;;;3.90;2.55;;;;;;;;;;5098012;28;20027;-78
2022/09/29 10:41:55;;;;;;;3.63;2.47;;;;;;;;;;5097444;28;20485;-78
2022/09/29 10:44:21;;;;;;;4.85;2.30;;;;;;;;;;5097233;28;20039;-77
2022/09/29 10:46:55;;;;;;;3.63;2.15;;;;;;;;;;5096805;28;20020;-76
2022/09/29 10:49:22;;;;;;;3.15;1.98;;;;;;;;;;5096766;28;20035;-76
2022/09/29 10:52:00;;;;;;;2.63;2.08;;;;;;;;;;5095698;28;20374;-76
2022/09/29 10:54:29;;;;;;;3.10;2.15;;;;;;;;;;5095391;28;20030;-77
2022/09/29 10:56:56;;;;;;;3.30;2.30;;;;;;;;;;5096426;28;20027;-77
2022/09/29 10:59:23;;;;;;;3.75;1.92;;;;;;;;;;5096483;28;20036;-77
2022/09/29 11:01:52;;;;;;;2.67;1.80;;;;;;;;;;5096518;28;20480;-77
2022/09/29 11:04:23;;;;;;;5.95;1.80;;;;;;;;;;5096392;28;20027;-77
2022/09/29 11:06:49;;;;;;;2.85;1.75;;;;;;;;;;5098566;28;20581;-78
2022/09/29 11:09:14;;;;;;;3.10;1.77;;;;;;;;;;5097791;28;20039;-77
2022/09/29 11:11:46;;;;;;;4.30;2.30;;;;;;;;;;5097748;28;20405;-78
2022/09/29 11:14:27;;;;;;;3.42;2.10;;;;;;;;;;5096181;28;20264;-77
2022/09/29 11:16:57;;;;;;;3.67;1.60;;;;;;;;;;5098754;28;20032;-77
2022/09/29 11:19:22;;;;;;;3.85;1.70;;;;;;;;;;5097469;28;20078;-77
2022/09/29 11:21:50;;;;;;;4.35;1.83;;;;;;;;;;5097065;28;20489;-77
2022/09/29 11:24:35;;;;;;;1.70;1.55;;;;;;;;;;5097169;28;20035;-77
2022/09/29 11:27:15;;;;;;;2.65;1.80;;;;;;;;;;5095924;28;20020;-77
2022/09/29 11:29:57;;;;;;;1.95;1.60;;;;;;;;;;5096811;28;20492;-77
2022/09/29 11:32:32;;;;;;;2.28;1.58;;;;;;;;;;5095885;28;20023;-77
2022/09/29 11:35:22;;;;;;;4.07;1.63;;;;;;;;;;5095956;28;20107;-77
2022/09/29 11:38:09;;;;;;;2.20;1.70;;;;;;;;;;5096753;28;20103;-77
2022/09/29 11:40:35;;;;;;;2.40;1.60;;;;;;;;;;5095333;28;20043;-77
2022/09/29 11:43:33;;;;;;;1.80;1.38;;;;;;;;;;5096966;28;20024;-77
2022/09/29 11:46:22;;;;;;;2.35;1.35;;;;;;;;;;5096569;28;20039;-77
2022/09/29 11:48:55;;;;;;;2.40;1.25;;;;;;;;;;5096751;28;20027;-77
2022/09/29 11:51:34;;;;;;;1.73;1.35;;;;;;;;;;5096425;28;20034;-77
2022/09/29 11:54:26;;;;;;;2.45;1.40;;;;;;;;;;5096596;28;20103;-77
2022/09/29 11:56:59;;;;;;;3.13;1.52;;;;;;;;;;5095684;28;20024;-76
2022/09/29 11:59:40;;;;;;;2.08;1.45;;;;;;;;;;5095365;28;20027;-77
2022/09/29 12:02:27;;;;;;;1.55;1.45;;;;;;;;;;5095293;28;20073;-77
2022/09/29 12:05:04;;;;;;;5.25;1.45;;;;;;;;;;5095290;28;20024;-77
2022/09/29 12:07:58;;;;;;;3.63;1.75;;;;;;;;;;5095206;28;20024;-77
2022/09/29 12:10:57;;;;;;;4.15;1.52;;;;;;;;;;5095105;28;20031;-78
2022/09/29 12:13:54;;;;;;;3.63;1.80;;;;;;;;;;5089645;28;20097;-77
2022/09/29 12:16:23;;;;;;;1.90;1.50;;;;;;;;;;5095076;28;20123;-77
2022/09/29 12:18:52;;;;;;;4.22;1.50;;;;;;;;;;5094484;28;20093;-78
2022/09/29 12:21:39;;;;;;;3.72;1.52;;;;;;;;;;5093961;28;20032;-77
2022/09/29 12:24:10;;;;;;;2.42;1.50;;;;;;;;;;5095763;28;20370;-77
2022/09/29 12:26:37;;;;;;;4.47;1.73;;;;;;;;;;5095132;28;20055;-77
2022/09/29 12:29:07;;;;;;;4.00;2.08;;;;;;;;;;5094622;28;20103;-78
2022/09/29 12:31:41;;;;;;;2.90;1.73;;;;;;;;;;5095140;28;20578;-77
2022/09/29 12:34:14;;;;;;;3.08;1.63;;;;;;;;;;5095224;28;20020;-77
2022/09/29 12:36:52;;;;;;;2.65;1.85;;;;;;;;;;5094954;28;20024;-77
2022/09/29 12:39:34;;;;;;;5.40;2.10;;;;;;;;;;5093373;28;20553;-77
2022/09/29 12:42:21;;;;;;;2.03;1.63;;;;;;;;;;5093642;28;20481;-76
2022/09/29 12:45:01;;;;;;;3.17;2.00;;;;;;;;;;5093114;28;20024;-77
2022/09/29 12:47:44;;;;;;;4.05;2.13;;;;;;;;;;5093953;28;20030;-77
2022/09/29 12:50:19;;;;;;;3.17;2.00;;;;;;;;;;5094803;28;20027;-77
2022/09/29 12:52:59;;;;;;;3.00;2.00;;;;;;;;;;5094579;28;20023;-78
2022/09/29 12:55:38;;;;;;;3.25;2.08;;;;;;;;;;5094603;28;20024;-76
2022/09/29 12:58:13;;;;;;;2.70;1.77;;;;;;;;;;5093161;28;20508;-78
2022/09/29 13:00:43;;;;;;;3.55;1.60;;;;;;;;;;5094467;28;20035;-77
2022/09/29 13:03:35;;;;;;;3.75;1.70;;;;;;;;;;5092917;28;20062;-76
2022/09/29 13:06:22;;;;;;;6.78;2.35;;;;;;;;;;5094618;28;20066;-77
2022/09/29 13:09:07;;;;;;;2.25;1.58;;;;;;;;;;5092736;28;20020;-77
2022/09/29 13:12:05;;;;;;;3.47;1.63;;;;;;;;;;5094311;28;20035;-77
2022/09/29 13:14:46;;;;;;;2.13;1.60;;;;;;;;;;5094181;28;20026;-76
2022/09/29 13:17:37;;;;;;;2.53;1.70;;;;;;;;;;5093673;28;20481;-77
2022/09/29 13:20:31;;;;;;;3.97;1.83;;;;;;;;;;5093917;28;20035;-77
2022/09/29 13:23:16;;;;;;;4.00;1.67;;;;;;;;;;5094288;28;20481;-77
2022/09/29 13:25:47;;;;;;;3.05;1.83;;;;;;;;;;5094570;28;20441;-77
2022/09/29 13:28:39;;;;;;;2.35;1.63;;;;;;;;;;5094233;28;20024;-77
2022/09/29 13:31:07;;;;;;;3.13;1.80;;;;;;;;;;5094207;28;20027;-77
2022/09/29 13:33:33;;;;;;;2.63;1.70;;;;;;;;;;5094344;28;20422;-77
2022/09/29 13:35:59;;;;;;;3.92;2.20;;;;;;;;;;5093926;28;20024;-77
2022/09/29 13:38:32;;;;;;;9.05;2.30;;;;;;;;;;5093536;28;20023;-77
2022/09/29 13:41:30;;;;;;;6.18;2.10;;;;;;;;;;5092087;28;20028;-77
2022/09/29 13:43:58;;;;;;;4.68;2.55;;;;;;;;;;5072430;28;20038;-77
2022/09/29 13:46:36;;;;;;;4.18;2.10;;;;;;;;;;5093493;28;20023;-77
2022/09/29 13:49:11;;;;;;;4.28;1.90;;;;;;;;;;5093839;28;20034;-76
2022/09/29 13:51:57;;;;;;;3.28;1.90;;;;;;;;;;5093649;28;20032;-77
2022/09/29 13:54:22;;;;;;;2.85;1.85;;;;;;;;;;5092797;28;20024;-77
2022/09/29 13:56:50;;;;;;;3.25;1.55;;;;;;;;;;5093195;28;20030;-77
2022/09/29 13:59:22;;;;;;;4.90;1.75;;;;;;;;;;5093165;28;20115;-76
2022/09/29 14:01:49;;;;;;;2.90;1.80;;;;;;;;;;5093186;28;20027;-77
2022/09/29 14:04:49;;;;;;;2.22;1.60;;;;;;;;;;5093200;28;20077;-77
2022/09/29 14:07:48;;;;;;;2.97;1.73;;;;;;;;;;5093264;28;20077;-77
2022/09/29 14:10:33;;;;;;;3.28;1.40;;;;;;;;;;5091931;28;20044;-77
2022/09/29 14:13:04;;;;;;;1.75;1.45;;;;;;;;;;5093582;28;20741;-76
2022/09/29 14:15:39;;;;;;;4.65;1.73;;;;;;;;;;5093303;28;20031;-76
2022/09/29 14:18:35;;;;;;;2.58;1.60;;;;;;;;;;5093762;28;20024;-77
2022/09/29 14:21:09;;;;;;;2.78;1.67;;;;;;;;;;5094177;28;20381;-77
2022/09/29 14:23:43;;;;;;;3.00;1.90;;;;;;;;;;5094074;28;20102;-76
2022/09/29 14:26:42;;;;;;;3.78;1.77;;;;;;;;;;5093155;28;20016;-77
2022/09/29 14:29:21;;;;;;;4.38;2.00;;;;;;;;;;5093386;28;21722;-77
2022/09/29 14:31:50;;;;;;;5.07;1.73;;;;;;;;;;5091786;28;20031;-77
2022/09/29 14:34:18;;;;;;;3.10;1.80;;;;;;;;;;5093342;28;20552;-77
2022/09/29 14:36:46;;;;;;;4.00;2.00;;;;;;;;;;5092945;28;20057;-77
2022/09/29 14:39:14;;;;;;;3.00;1.90;;;;;;;;;;5093260;28;20028;-76
2022/09/29 14:41:45;;;;;;;3.05;1.88;;;;;;;;;;5092984;28;20024;-77
2022/09/29 14:51:56;;;;;;;2.88;1.88;;;;;;;;;;5092687;28;20447;-77
2022/09/29 14:53:55;;;;;;;2.35;1.65;;;;;;;;;;5092769;28;20508;-77
2022/09/29 14:56:31;;;;;;;2.97;2.05;;;;;;;;;;5093076;28;20060;-77
2022/09/29 14:59:17;;;;;;;3.70;1.80;;;;;;;;;;5091220;28;20100;-77
2022/09/29 15:02:03;;;;;;;4.05;1.55;;;;;;;;;;5093125;28;20161;-77
2022/09/29 15:04:28;;;;;;;7.53;1.40;;;;;;;;;;5093819;28;20024;-77
2022/09/29 15:06:54;;;;;;;3.05;1.50;;;;;;;;;;5092943;28;20499;-77
2022/09/29 15:09:24;;;;;;;5.00;1.75;;;;;;;;;;5096861;28;20026;-76
2022/09/29 15:11:51;;;;;;;3.53;2.10;;;;;;;;;;5097388;28;20034;-76
2022/09/29 15:14:19;;;;;;;4.05;2.10;;;;;;;;;;5095921;28;20024;-76
2022/09/29 15:17:13;;;;;;;3.85;2.30;;;;;;;;;;5095007;28;20028;-76
2022/09/29 15:19:41;;;;;;;2.80;1.90;;;;;;;;;;5094656;28;20389;-76
2022/09/29 15:22:37;;;;;;;4.00;2.20;;;;;;;;;;5095935;28;20026;-76